createdAt,value
2022-09-01T00:00:28.575Z,0.00
2022-09-01T00:01:28.767Z,0.00
2022-09-01T00:02:28.597Z,0.00
2022-09-01T00:03:28.538Z,0.00
2022-09-01T00:04:28.681Z,0.00
2022-09-01T00:05:28.504Z,0.00
2022-09-01T00:06:28.507Z,0.00
2022-09-01T00:07:28.486Z,0.00
2022-09-01T00:08:28.471Z,0.00
2022-09-01T00:09:28.466Z,0.00
2022-09-01T00:10:28.447Z,0.00
2022-09-01T00:11:28.456Z,0.00
2022-09-01T00:12:28.431Z,0.00
2022-09-01T00:13:28.426Z,0.00
2022-09-01T00:14:30.055Z,0.00
2022-09-01T00:15:28.469Z,0.00
2022-09-01T00:16:28.420Z,0.00
2022-09-01T00:17:28.396Z,0.00
2022-09-01T00:18:28.393Z,0.00
2022-09-01T00:19:28.372Z,0.00
2022-09-01T00:20:28.355Z,0.00
2022-09-01T00:21:28.355Z,0.00
2022-09-01T00:22:28.337Z,0.00
2022-09-01T00:23:28.352Z,0.00
2022-09-01T00:24:28.345Z,0.00
2022-09-01T00:25:28.315Z,0.00
2022-09-01T00:26:28.294Z,0.00
2022-09-01T00:27:30.835Z,0.00
2022-09-01T00:28:30.402Z,0.00
2022-09-01T00:29:28.268Z,0.00
2022-09-01T00:30:28.258Z,0.00
2022-09-01T00:31:28.292Z,0.00
2022-09-01T00:32:28.237Z,0.00
2022-09-01T00:33:28.239Z,0.00
2022-09-01T00:34:28.218Z,0.00
2022-09-01T00:35:28.213Z,0.00
2022-09-01T00:36:28.206Z,0.00
2022-09-01T00:37:28.214Z,0.00
2022-09-01T00:38:28.195Z,0.00
2022-09-01T00:39:28.172Z,0.00
2022-09-01T00:40:28.220Z,0.00
2022-09-01T00:41:28.146Z,0.00
2022-09-01T00:42:28.135Z,0.00
2022-09-01T00:43:28.146Z,0.00
2022-09-01T00:44:31.153Z,0.00
2022-09-01T00:45:28.111Z,0.00
2022-09-01T00:46:29.085Z,0.00
2022-09-01T00:47:28.101Z,0.00
2022-09-01T00:48:28.148Z,0.00
2022-09-01T00:49:28.072Z,0.00
2022-09-01T00:50:28.063Z,0.00
2022-09-01T00:51:28.068Z,0.00
2022-09-01T00:52:28.050Z,0.00
2022-09-01T00:53:28.048Z,0.00
2022-09-01T00:54:28.030Z,0.00
2022-09-01T00:55:28.019Z,0.00
2022-09-01T00:56:28.003Z,0.00
2022-09-01T00:57:27.995Z,0.00
2022-09-01T00:58:28.000Z,0.00
2022-09-01T00:59:28.001Z,0.00
2022-09-01T01:00:27.970Z,0.00
2022-09-01T01:01:28.076Z,0.00
2022-09-01T01:02:28.024Z,0.00
2022-09-01T01:03:27.951Z,0.00
2022-09-01T01:04:27.932Z,0.00
2022-09-01T01:05:28.025Z,0.00
2022-09-01T01:06:30.713Z,0.00
2022-09-01T01:07:27.898Z,0.00
2022-09-01T01:08:27.905Z,0.00
2022-09-01T01:09:27.883Z,0.00
2022-09-01T01:10:27.873Z,0.00
2022-09-01T01:11:27.866Z,0.00
2022-09-01T01:12:27.857Z,0.00
2022-09-01T01:13:27.863Z,0.00
2022-09-01T01:14:27.836Z,0.00
2022-09-01T01:15:27.841Z,0.00
2022-09-01T01:16:27.880Z,0.00
2022-09-01T01:17:27.811Z,0.00
2022-09-01T01:18:27.819Z,0.00
2022-09-01T01:19:27.787Z,0.00
2022-09-01T01:20:27.780Z,0.00
2022-09-01T01:21:27.772Z,0.00
2022-09-01T01:22:27.762Z,0.00
2022-09-01T01:23:27.764Z,0.00
2022-09-01T01:24:27.739Z,0.00
2022-09-01T01:25:27.735Z,0.00
2022-09-01T01:26:27.717Z,0.00
2022-09-01T01:27:27.717Z,0.00
2022-09-01T01:28:27.721Z,0.00
2022-09-01T01:29:27.689Z,0.00
2022-09-01T01:30:27.724Z,0.00
2022-09-01T01:31:27.678Z,0.00
2022-09-01T01:32:27.666Z,0.00
2022-09-01T01:33:27.687Z,0.00
2022-09-01T01:34:27.639Z,0.00
2022-09-01T01:35:27.642Z,0.00
2022-09-01T01:36:27.631Z,0.00
2022-09-01T01:37:27.620Z,0.00
2022-09-01T01:38:27.617Z,0.00
2022-09-01T01:39:27.600Z,0.00
2022-09-01T01:40:27.619Z,0.00
2022-09-01T01:41:27.576Z,0.00
2022-09-01T01:42:27.568Z,0.00
2022-09-01T01:43:27.568Z,0.00
2022-09-01T01:44:27.546Z,0.00
2022-09-01T01:45:27.533Z,0.00
2022-09-01T01:46:27.571Z,0.00
2022-09-01T01:47:27.515Z,0.00
2022-09-01T01:48:27.517Z,0.00
2022-09-01T01:49:27.498Z,0.00
2022-09-01T01:50:27.497Z,0.00
2022-09-01T01:51:27.483Z,0.00
2022-09-01T01:52:27.467Z,0.00
2022-09-01T01:53:27.471Z,0.00
2022-09-01T01:54:27.446Z,0.00
2022-09-01T01:55:27.438Z,0.00
2022-09-01T01:56:27.428Z,0.00
2022-09-01T01:57:27.415Z,0.00
2022-09-01T01:58:27.419Z,0.00
2022-09-01T01:59:27.398Z,0.00
2022-09-01T02:00:30.823Z,0.00
2022-09-01T02:01:27.397Z,0.00
2022-09-01T02:02:27.419Z,0.00
2022-09-01T02:03:27.375Z,0.00
2022-09-01T02:04:27.350Z,0.00
2022-09-01T02:05:27.343Z,0.00
2022-09-01T02:06:27.331Z,0.00
2022-09-01T02:07:27.321Z,0.00
2022-09-01T02:08:27.324Z,0.00
2022-09-01T02:09:27.301Z,0.00
2022-09-01T02:10:27.287Z,0.00
2022-09-01T02:11:27.282Z,0.00
2022-09-01T02:12:27.272Z,0.00
2022-09-01T02:13:27.276Z,0.00
2022-09-01T02:14:27.247Z,0.00
2022-09-01T02:15:27.249Z,0.00
2022-09-01T02:16:27.323Z,0.00
2022-09-01T02:17:27.221Z,0.00
2022-09-01T02:18:27.241Z,0.00
2022-09-01T02:19:27.204Z,0.00
2022-09-01T02:20:27.190Z,0.00
2022-09-01T02:21:27.220Z,0.00
2022-09-01T02:22:27.169Z,0.00
2022-09-01T02:23:27.173Z,0.00
2022-09-01T02:24:27.148Z,0.00
2022-09-01T02:25:27.139Z,0.00
2022-09-01T02:26:27.132Z,0.00
2022-09-01T02:27:27.136Z,0.00
2022-09-01T02:28:27.113Z,0.00
2022-09-01T02:29:27.104Z,0.00
2022-09-01T02:30:27.169Z,0.00
2022-09-01T02:31:27.091Z,0.00
2022-09-01T02:32:27.086Z,0.00
2022-09-01T02:33:27.069Z,0.00
2022-09-01T02:34:27.056Z,0.00
2022-09-01T02:35:27.053Z,0.00
2022-09-01T02:36:27.035Z,0.00
2022-09-01T02:37:27.029Z,0.00
2022-09-01T02:38:27.033Z,0.00
2022-09-01T02:39:27.004Z,0.00
2022-09-01T02:40:27.026Z,0.00
2022-09-01T02:41:26.987Z,0.00
2022-09-01T02:42:26.988Z,0.00
2022-09-01T02:43:26.987Z,0.00
2022-09-01T02:44:27.028Z,0.00
2022-09-01T02:45:26.952Z,0.00
2022-09-01T02:46:26.944Z,0.00
2022-09-01T02:47:26.929Z,0.00
2022-09-01T02:48:26.931Z,0.00
2022-09-01T02:49:26.913Z,0.00
2022-09-01T02:50:26.899Z,0.00
2022-09-01T02:51:26.899Z,0.00
2022-09-01T02:52:26.878Z,0.00
2022-09-01T02:53:26.889Z,0.00
2022-09-01T02:54:26.854Z,0.00
2022-09-01T02:55:26.852Z,0.00
2022-09-01T02:56:26.837Z,0.00
2022-09-01T02:57:26.830Z,0.00
2022-09-01T02:58:26.832Z,0.00
2022-09-01T02:59:26.812Z,0.00
2022-09-01T03:00:26.802Z,0.00
2022-09-01T03:01:26.895Z,0.00
2022-09-01T03:02:26.782Z,0.00
2022-09-01T03:03:26.799Z,0.00
2022-09-01T03:04:26.818Z,0.00
2022-09-01T03:05:26.762Z,0.00
2022-09-01T03:06:26.744Z,0.00
2022-09-01T03:07:26.743Z,0.00
2022-09-01T03:08:26.828Z,0.00
2022-09-01T03:09:26.729Z,0.00
2022-09-01T03:10:26.717Z,0.00
2022-09-01T03:11:26.709Z,0.00
2022-09-01T03:12:26.698Z,0.00
2022-09-01T03:13:26.697Z,0.00
2022-09-01T03:14:26.677Z,0.00
2022-09-01T03:15:26.682Z,0.00
2022-09-01T03:16:26.695Z,0.00
2022-09-01T03:17:26.651Z,0.00
2022-09-01T03:18:26.669Z,0.00
2022-09-01T03:19:26.634Z,0.00
2022-09-01T03:20:26.624Z,0.00
2022-09-01T03:21:26.606Z,0.00
2022-09-01T03:22:26.608Z,0.00
2022-09-01T03:23:26.610Z,0.00
2022-09-01T03:24:26.590Z,0.00
2022-09-01T03:25:26.570Z,0.00
2022-09-01T03:26:26.564Z,0.00
2022-09-01T03:27:26.558Z,0.00
2022-09-01T03:28:26.564Z,0.00
2022-09-01T03:29:26.534Z,0.00
2022-09-01T03:30:26.525Z,0.00
2022-09-01T03:31:26.528Z,0.00
2022-09-01T03:32:26.504Z,0.00
2022-09-01T03:33:26.487Z,0.00
2022-09-01T03:34:26.517Z,0.00
2022-09-01T03:35:26.473Z,0.00
2022-09-01T03:36:26.469Z,0.00
2022-09-01T03:37:26.467Z,0.00
2022-09-01T03:38:26.448Z,0.00
2022-09-01T03:39:26.449Z,0.00
2022-09-01T03:40:26.512Z,0.00
2022-09-01T03:41:26.413Z,0.00
2022-09-01T03:42:26.409Z,0.00
2022-09-01T03:43:26.402Z,0.00
2022-09-01T03:44:26.404Z,0.00
2022-09-01T03:45:26.528Z,0.00
2022-09-01T03:46:26.373Z,0.00
2022-09-01T03:47:26.361Z,0.00
2022-09-01T03:48:26.359Z,0.00
2022-09-01T03:49:26.357Z,0.00
2022-09-01T03:50:26.338Z,0.00
2022-09-01T03:51:26.327Z,0.00
2022-09-01T03:52:26.320Z,0.00
2022-09-01T03:53:26.309Z,0.00
2022-09-01T03:54:26.330Z,0.00
2022-09-01T03:55:26.329Z,0.00
2022-09-01T03:56:26.313Z,0.00
2022-09-01T03:57:26.272Z,0.00
2022-09-01T03:58:27.269Z,0.00
2022-09-01T03:59:26.263Z,0.00
2022-09-01T04:00:26.254Z,0.00
2022-09-01T04:01:26.319Z,0.00
2022-09-01T04:02:26.276Z,0.00
2022-09-01T04:03:28.954Z,0.00
2022-09-01T04:04:26.224Z,0.00
2022-09-01T04:05:26.195Z,4.00
2022-09-01T04:06:26.191Z,4.00
2022-09-01T04:07:26.180Z,0.00
2022-09-01T04:08:26.173Z,4.00
2022-09-01T04:09:26.477Z,4.00
2022-09-01T04:10:26.168Z,4.00
2022-09-01T04:11:26.142Z,4.00
2022-09-01T04:12:26.134Z,4.00
2022-09-01T04:13:26.127Z,4.00
2022-09-01T04:14:26.269Z,8.00
2022-09-01T04:15:26.099Z,8.00
2022-09-01T04:16:26.144Z,8.00
2022-09-01T04:17:30.365Z,12.00
2022-09-01T04:18:26.086Z,12.00
2022-09-01T04:19:26.082Z,16.00
2022-09-01T04:20:26.065Z,16.00
2022-09-01T04:21:26.161Z,16.00
2022-09-01T04:22:26.498Z,20.00
2022-09-01T04:23:26.224Z,24.00
2022-09-01T04:24:26.041Z,24.00
2022-09-01T04:25:26.014Z,28.00
2022-09-01T04:26:26.010Z,40.00
2022-09-01T04:27:25.999Z,44.00
2022-09-01T04:28:25.995Z,48.00
2022-09-01T04:29:26.003Z,56.00
2022-09-01T04:30:26.008Z,60.00
2022-09-01T04:31:26.032Z,68.00
2022-09-01T04:32:25.954Z,76.00
2022-09-01T04:33:25.943Z,84.00
2022-09-01T04:34:25.940Z,92.00
2022-09-01T04:35:25.941Z,100.00
2022-09-01T04:36:26.110Z,108.00
2022-09-01T04:37:25.899Z,116.00
2022-09-01T04:38:25.896Z,124.00
2022-09-01T04:39:25.897Z,136.00
2022-09-01T04:40:25.946Z,148.00
2022-09-01T04:41:25.865Z,160.00
2022-09-01T04:42:25.862Z,168.00
2022-09-01T04:43:25.845Z,180.00
2022-09-01T04:44:25.856Z,188.00
2022-09-01T04:45:25.883Z,204.00
2022-09-01T04:46:25.824Z,212.00
2022-09-01T04:47:25.810Z,228.00
2022-09-01T04:48:25.803Z,236.00
2022-09-01T04:49:25.788Z,248.00
2022-09-01T04:50:25.802Z,256.00
2022-09-01T04:51:25.788Z,268.00
2022-09-01T04:52:25.893Z,292.00
2022-09-01T04:53:27.638Z,324.00
2022-09-01T04:54:25.758Z,348.00
2022-09-01T04:55:25.757Z,372.00
2022-09-01T04:56:25.735Z,388.00
2022-09-01T04:57:25.723Z,412.00
2022-09-01T04:58:25.711Z,436.00
2022-09-01T04:59:25.700Z,460.00
2022-09-01T05:00:25.792Z,480.00
2022-09-01T05:01:25.780Z,504.00
2022-09-01T05:02:25.810Z,520.00
2022-09-01T05:03:25.670Z,536.00
2022-09-01T05:04:25.653Z,552.00
2022-09-01T05:05:25.663Z,576.00
2022-09-01T05:06:25.678Z,604.00
2022-09-01T05:07:25.626Z,628.00
2022-09-01T05:08:25.777Z,660.00
2022-09-01T05:09:25.605Z,688.00
2022-09-01T05:10:25.612Z,708.00
2022-09-01T05:11:25.580Z,720.00
2022-09-01T05:12:25.579Z,736.00
2022-09-01T05:13:25.559Z,748.00
2022-09-01T05:14:25.561Z,752.00
2022-09-01T05:15:25.588Z,760.00
2022-09-01T05:16:25.745Z,768.00
2022-09-01T05:17:25.525Z,784.00
2022-09-01T05:18:25.521Z,804.00
2022-09-01T05:19:25.507Z,824.00
2022-09-01T05:20:25.516Z,840.00
2022-09-01T05:21:25.490Z,856.00
2022-09-01T05:22:25.485Z,868.00
2022-09-01T05:23:25.497Z,880.00
2022-09-01T05:24:25.459Z,900.00
2022-09-01T05:25:25.460Z,928.00
2022-09-01T05:26:25.464Z,956.00
2022-09-01T05:27:25.432Z,984.00
2022-09-01T05:28:25.504Z,996.00
2022-09-01T05:29:25.410Z,1000.00
2022-09-01T05:30:25.428Z,1012.00
2022-09-01T05:31:25.487Z,1044.00
2022-09-01T05:32:25.384Z,1064.00
2022-09-01T05:33:25.371Z,1084.00
2022-09-01T05:34:25.368Z,1112.00
2022-09-01T05:35:25.384Z,1140.00
2022-09-01T05:36:26.344Z,1176.00
2022-09-01T05:37:25.332Z,1212.00
2022-09-01T05:38:25.326Z,1256.00
2022-09-01T05:39:25.315Z,1300.00
2022-09-01T05:40:25.392Z,1360.00
2022-09-01T05:41:25.293Z,1416.00
2022-09-01T05:42:25.292Z,1484.00
2022-09-01T05:43:25.278Z,1556.00
2022-09-01T05:44:25.287Z,1648.00
2022-09-01T05:45:25.564Z,1772.00
2022-09-01T05:46:25.299Z,1828.00
2022-09-01T05:47:25.230Z,1808.00
2022-09-01T05:48:25.229Z,1816.00
2022-09-01T05:49:25.213Z,1872.00
2022-09-01T05:50:25.220Z,1908.00
2022-09-01T05:51:43.259Z,1944.00
2022-09-01T05:52:26.221Z,1968.00
2022-09-01T05:53:25.203Z,2008.00
2022-09-01T05:54:25.164Z,2036.00
2022-09-01T05:55:25.202Z,2028.00
2022-09-01T05:56:25.148Z,2044.00
2022-09-01T05:57:34.781Z,2068.00
2022-09-01T05:58:26.293Z,2092.00
2022-09-01T05:59:26.009Z,2132.00
2022-09-01T06:00:25.121Z,2136.00
2022-09-01T06:01:25.102Z,2204.00
2022-09-01T06:02:25.147Z,2300.00
2022-09-01T06:03:25.413Z,2304.00
2022-09-01T06:04:25.071Z,2292.00
2022-09-01T06:05:25.072Z,2344.00
2022-09-01T06:06:25.051Z,2420.00
2022-09-01T06:07:25.570Z,2480.00
2022-09-01T06:08:25.036Z,2580.00
2022-09-01T06:09:25.027Z,2688.00
2022-09-01T06:10:25.027Z,2816.00
2022-09-01T06:11:24.996Z,2888.00
2022-09-01T06:12:25.119Z,2928.00
2022-09-01T06:13:27.327Z,2996.00
2022-09-01T06:14:24.976Z,3108.00
2022-09-01T06:15:25.204Z,3200.00
2022-09-01T06:16:25.143Z,3220.00
2022-09-01T06:17:25.557Z,3268.00
2022-09-01T06:18:24.936Z,3344.00
2022-09-01T06:19:24.921Z,3408.00
2022-09-01T06:20:24.950Z,3456.00
2022-09-01T06:21:24.905Z,3500.00
2022-09-01T06:22:24.896Z,3500.00
2022-09-01T06:23:24.904Z,3440.00
2022-09-01T06:24:24.884Z,3384.00
2022-09-01T06:25:24.882Z,3304.00
2022-09-01T06:26:24.862Z,3368.00
2022-09-01T06:27:24.850Z,3524.00
2022-09-01T06:28:24.840Z,3640.00
2022-09-01T06:29:24.828Z,3696.00
2022-09-01T06:30:24.863Z,3820.00
2022-09-01T06:31:24.881Z,3812.00
2022-09-01T06:32:24.803Z,3780.00
2022-09-01T06:33:24.791Z,3740.00
2022-09-01T06:34:24.789Z,3740.00
2022-09-01T06:35:24.781Z,3792.00
2022-09-01T06:36:24.762Z,3828.00
2022-09-01T06:37:24.755Z,3908.00
2022-09-01T06:38:24.746Z,3988.00
2022-09-01T06:39:24.731Z,4072.00
2022-09-01T06:40:24.803Z,4180.00
2022-09-01T06:41:24.715Z,4208.00
2022-09-01T06:42:24.706Z,4236.00
2022-09-01T06:43:24.686Z,4276.00
2022-09-01T06:44:24.691Z,4188.00
2022-09-01T06:45:24.689Z,4120.00
2022-09-01T06:46:24.700Z,4176.00
2022-09-01T06:47:24.658Z,4272.00
2022-09-01T06:48:24.642Z,4308.00
2022-09-01T06:49:24.632Z,4396.00
2022-09-01T06:51:25.613Z,4616.00
2022-09-01T06:52:24.674Z,4676.00
2022-09-01T06:53:32.476Z,4772.00
2022-09-01T06:54:25.593Z,4856.00
2022-09-01T06:55:24.650Z,4948.00
2022-09-01T06:56:24.589Z,5032.00
2022-09-01T06:58:25.556Z,5056.00
2022-09-01T06:59:24.538Z,5020.00
2022-09-01T07:00:24.542Z,5068.00
2022-09-01T07:01:24.610Z,5112.00
2022-09-01T07:02:26.901Z,5140.00
2022-09-01T07:03:24.500Z,5196.00
2022-09-01T07:04:25.322Z,5128.00
2022-09-01T07:08:25.481Z,5120.00
2022-09-01T07:09:38.797Z,5256.00
2022-09-01T07:10:25.520Z,5456.00
2022-09-01T07:12:26.271Z,5772.00
2022-09-01T07:13:24.394Z,5900.00
2022-09-01T07:14:24.389Z,5936.00
2022-09-01T07:16:35.405Z,6140.00
2022-09-01T07:17:25.366Z,6300.00
2022-09-01T07:18:24.355Z,6480.00
2022-09-01T07:19:48.364Z,6660.00
2022-09-01T07:20:25.926Z,7336.00
2022-09-01T07:21:42.188Z,11140.00
2022-09-01T07:23:25.915Z,14784.00
2022-09-01T07:24:29.394Z,14720.00
2022-09-01T07:25:48.309Z,13856.00
2022-09-01T07:26:26.376Z,9988.00
2022-09-01T07:27:25.548Z,6988.00
2022-09-01T07:28:25.291Z,6736.00
2022-09-01T07:29:24.244Z,6688.00
2022-09-01T07:30:25.013Z,6676.00
2022-09-01T07:34:40.614Z,7088.00
2022-09-01T07:35:25.210Z,7304.00
2022-09-01T07:36:25.629Z,7352.00
2022-09-01T07:43:00.117Z,14816.00
2022-09-01T07:43:28.329Z,9172.00
2022-09-01T07:44:25.102Z,14144.00
2022-09-01T07:45:27.889Z,15616.00
2022-09-01T07:46:39.525Z,16832.00
2022-09-01T07:47:54.745Z,16320.00
2022-09-01T07:49:52.364Z,9540.00
2022-09-01T07:50:40.406Z,7752.00
2022-09-01T07:51:40.550Z,7384.00
2022-09-01T07:52:25.063Z,7764.00
2022-09-01T07:53:24.010Z,8392.00
2022-09-01T07:54:24.035Z,8256.00
2022-09-01T07:55:23.994Z,11808.00
2022-09-01T07:56:24.240Z,8156.00
2022-09-01T07:57:23.972Z,8088.00
2022-09-01T07:58:23.957Z,8172.00
2022-09-01T07:59:23.966Z,8300.00
2022-09-01T08:00:23.955Z,8328.00
2022-09-01T08:01:24.041Z,8344.00
2022-09-01T08:02:23.982Z,8328.00
2022-09-01T08:03:24.146Z,8256.00
2022-09-01T08:04:23.902Z,8176.00
2022-09-01T08:05:23.921Z,8008.00
2022-09-01T08:06:23.884Z,8104.00
2022-09-01T08:07:23.883Z,8172.00
2022-09-01T08:08:28.706Z,8276.00
2022-09-01T08:09:32.874Z,8484.00
2022-09-01T08:10:24.853Z,8600.00
2022-09-01T08:11:40.077Z,8660.00
2022-09-01T08:12:28.868Z,8764.00
2022-09-01T08:13:23.822Z,8672.00
2022-09-01T08:14:23.801Z,8724.00
2022-09-01T08:15:41.119Z,8784.00
2022-09-01T08:16:24.842Z,8828.00
2022-09-01T08:17:52.710Z,9124.00
2022-09-01T08:18:24.783Z,9696.00
2022-09-01T08:19:23.761Z,10196.00
2022-09-01T08:20:23.741Z,10580.00
2022-09-01T08:21:23.746Z,10772.00
2022-09-01T08:22:23.723Z,11708.00
2022-09-01T08:23:23.762Z,11992.00
2022-09-01T08:24:23.710Z,12068.00
2022-09-01T08:25:25.051Z,11540.00
2022-09-01T08:26:23.694Z,11348.00
2022-09-01T08:27:23.684Z,12040.00
2022-09-01T08:28:27.067Z,12588.00
2022-09-01T08:29:23.654Z,16960.00
2022-09-01T08:30:23.633Z,10596.00
2022-09-01T08:31:23.697Z,11020.00
2022-09-01T08:32:23.666Z,10096.00
2022-09-01T08:33:23.614Z,10132.00
2022-09-01T08:34:23.615Z,18336.00
2022-09-01T08:35:23.596Z,38592.00
2022-09-01T08:36:24.971Z,41792.00
2022-09-01T08:37:23.575Z,26432.00
2022-09-01T08:38:23.562Z,35136.00
2022-09-01T08:39:23.556Z,9772.00
2022-09-01T08:40:23.591Z,12224.00
2022-09-01T08:41:28.565Z,10332.00
2022-09-01T08:42:23.562Z,9008.00
2022-09-01T08:43:23.632Z,9212.00
2022-09-01T08:44:23.508Z,10656.00
2022-09-01T08:45:23.502Z,8640.00
2022-09-01T08:46:23.544Z,8204.00
2022-09-01T08:47:44.331Z,7864.00
2022-09-01T08:49:26.049Z,7968.00
2022-09-01T08:50:23.461Z,7972.00
2022-09-01T08:51:23.442Z,7932.00
2022-09-01T08:52:23.486Z,8512.00
2022-09-01T08:53:23.422Z,10060.00
2022-09-01T08:54:29.846Z,7744.00
2022-09-01T08:55:24.421Z,7776.00
2022-09-01T08:56:23.390Z,8308.00
2022-09-01T08:57:23.399Z,8104.00
2022-09-01T08:58:23.402Z,8124.00
2022-09-01T08:59:23.362Z,8164.00
2022-09-01T09:00:23.369Z,8388.00
2022-09-01T09:01:23.413Z,8660.00
2022-09-01T09:02:23.446Z,8904.00
2022-09-01T09:03:23.327Z,9104.00
2022-09-01T09:04:23.317Z,9460.00
2022-09-01T09:05:23.322Z,9692.00
2022-09-01T09:06:23.294Z,13028.00
2022-09-01T09:07:23.286Z,13356.00
2022-09-01T09:08:23.275Z,12216.00
2022-09-01T09:09:32.458Z,11280.00
2022-09-01T09:10:24.271Z,12980.00
2022-09-01T09:11:23.253Z,16576.00
2022-09-01T09:12:23.236Z,14588.00
2022-09-01T09:13:23.232Z,14924.00
2022-09-01T09:14:23.220Z,12656.00
2022-09-01T09:15:23.267Z,12672.00
2022-09-01T09:16:23.281Z,13352.00
2022-09-01T09:17:23.196Z,11832.00
2022-09-01T09:18:39.927Z,12068.00
2022-09-01T09:19:24.179Z,14648.00
2022-09-01T09:20:23.166Z,12612.00
2022-09-01T09:21:23.162Z,13044.00
2022-09-01T09:22:23.141Z,12668.00
2022-09-01T09:23:23.328Z,12712.00
2022-09-01T09:24:23.122Z,13804.00
2022-09-01T09:25:23.126Z,16160.00
2022-09-01T09:26:23.119Z,14196.00
2022-09-01T09:27:23.095Z,14064.00
2022-09-01T09:28:23.088Z,15424.00
2022-09-01T09:29:23.239Z,17856.00
2022-09-01T09:30:23.064Z,13396.00
2022-09-01T09:31:23.107Z,13360.00
2022-09-01T09:32:28.239Z,14116.00
2022-09-01T09:33:47.746Z,14996.00
2022-09-01T09:34:24.022Z,13236.00
2022-09-01T09:35:23.020Z,18560.00
2022-09-01T09:36:25.360Z,13528.00
2022-09-01T09:37:23.203Z,13880.00
2022-09-01T09:38:24.310Z,15968.00
2022-09-01T09:39:22.995Z,16704.00
2022-09-01T09:40:23.425Z,16288.00
2022-09-01T09:41:27.246Z,13376.00
2022-09-01T09:42:23.008Z,12128.00
2022-09-01T09:43:23.576Z,13100.00
2022-09-01T09:44:23.934Z,13588.00
2022-09-01T09:45:22.933Z,13588.00
2022-09-01T09:46:24.592Z,12176.00
2022-09-01T09:47:42.783Z,13120.00
2022-09-01T09:48:23.893Z,13148.00
2022-09-01T09:49:35.885Z,13028.00
2022-09-01T09:50:23.872Z,13092.00
2022-09-01T09:51:22.876Z,12832.00
2022-09-01T09:52:22.855Z,12896.00
2022-09-01T09:53:22.848Z,12716.00
2022-09-01T09:54:22.835Z,12588.00
2022-09-01T09:55:22.826Z,12352.00
2022-09-01T09:56:22.829Z,12612.00
2022-09-01T09:57:22.804Z,12784.00
2022-09-01T09:58:22.793Z,12900.00
2022-09-01T09:59:45.813Z,13328.00
2022-09-01T10:00:25.008Z,13568.00
2022-09-01T10:01:22.821Z,13500.00
2022-09-01T10:02:23.186Z,13496.00
2022-09-01T10:03:28.920Z,13600.00
2022-09-01T10:04:23.785Z,13760.00
2022-09-01T10:05:22.729Z,13904.00
2022-09-01T10:06:22.734Z,14164.00
2022-09-01T10:07:22.720Z,14540.00
2022-09-01T10:08:22.700Z,14632.00
2022-09-01T10:09:22.713Z,14952.00
2022-09-01T10:10:22.679Z,15424.00
2022-09-01T10:11:22.689Z,15968.00
2022-09-01T10:12:22.675Z,16416.00
2022-09-01T10:13:22.658Z,16960.00
2022-09-01T10:14:35.888Z,18432.00
2022-09-01T10:15:23.638Z,44704.00
2022-09-01T10:16:22.677Z,70752.00
2022-09-01T10:17:22.723Z,70208.00
2022-09-01T10:18:32.007Z,70880.00
2022-09-01T10:19:23.610Z,73344.00
2022-09-01T10:20:22.596Z,74496.00
2022-09-01T10:21:22.601Z,72320.00
2022-09-01T10:22:22.584Z,69792.00
2022-09-01T10:23:22.572Z,72992.00
2022-09-01T10:24:25.999Z,70848.00
2022-09-01T10:25:22.552Z,66304.00
2022-09-01T10:26:22.549Z,6288.00
2022-09-01T10:27:22.523Z,5832.00
2022-09-01T10:28:22.754Z,6188.00
2022-09-01T10:29:22.509Z,7768.00
2022-09-01T10:30:22.493Z,12188.00
2022-09-01T10:31:22.590Z,63520.00
2022-09-01T10:32:35.271Z,72832.00
2022-09-01T10:33:23.475Z,71584.00
2022-09-01T10:34:22.451Z,14984.00
2022-09-01T10:35:22.450Z,59744.00
2022-09-01T10:36:24.617Z,61984.00
2022-09-01T10:37:22.866Z,10008.00
2022-09-01T10:38:22.488Z,7700.00
2022-09-01T10:39:27.641Z,6600.00
2022-09-01T10:40:30.368Z,5744.00
2022-09-01T10:41:22.635Z,5468.00
2022-09-01T10:42:22.382Z,5588.00
2022-09-01T10:43:22.377Z,6176.00
2022-09-01T10:44:22.360Z,7312.00
2022-09-01T10:45:22.370Z,11956.00
2022-09-01T10:46:25.771Z,18368.00
2022-09-01T10:47:22.356Z,13604.00
2022-09-01T10:48:51.923Z,14776.00
2022-09-01T10:49:25.144Z,57088.00
2022-09-01T10:50:22.321Z,73056.00
2022-09-01T10:51:28.153Z,12236.00
2022-09-01T10:52:28.447Z,10896.00
2022-09-01T10:53:26.942Z,9796.00
2022-09-01T10:54:22.268Z,8484.00
2022-09-01T10:55:24.897Z,7528.00
2022-09-01T10:56:28.447Z,7592.00
2022-09-01T10:57:27.022Z,10224.00
2022-09-01T10:59:31.530Z,81184.00
2022-09-01T11:00:38.722Z,77568.00
2022-09-01T11:01:47.130Z,70080.00
2022-09-01T11:02:25.009Z,66944.00
2022-09-01T11:03:42.204Z,59328.00
2022-09-01T11:04:23.285Z,16032.00
2022-09-01T11:05:22.244Z,70336.00
2022-09-01T11:06:22.167Z,68384.00
2022-09-01T11:07:29.679Z,66112.00
2022-09-01T11:08:23.151Z,71968.00
2022-09-01T11:09:22.141Z,76288.00
2022-09-01T11:10:31.816Z,73216.00
2022-09-01T11:11:23.135Z,8880.00
2022-09-01T11:12:29.951Z,8512.00
2022-09-01T11:13:23.104Z,8288.00
2022-09-01T11:14:22.189Z,7644.00
2022-09-01T11:15:22.084Z,7448.00
2022-09-01T11:16:46.013Z,7892.00
2022-09-01T11:17:23.269Z,8668.00
2022-09-01T11:18:22.150Z,10248.00
2022-09-01T11:19:22.047Z,11832.00
2022-09-01T11:20:22.037Z,13448.00
2022-09-01T11:21:22.031Z,72032.00
2022-09-01T11:22:22.039Z,50080.00
2022-09-01T11:23:22.022Z,18240.00
2022-09-01T11:24:22.006Z,12748.00
2022-09-01T11:25:21.989Z,11212.00
2022-09-01T11:26:21.981Z,10016.00
2022-09-01T11:27:21.990Z,9612.00
2022-09-01T11:28:22.170Z,9484.00
2022-09-01T11:29:21.958Z,9740.00
2022-09-01T11:30:21.948Z,8736.00
2022-09-01T11:31:22.004Z,9220.00
2022-09-01T11:32:22.143Z,11488.00
2022-09-01T11:33:21.922Z,26080.00
2022-09-01T11:34:21.914Z,9788.00
2022-09-01T11:35:21.902Z,9304.00
2022-09-01T11:36:21.897Z,8608.00
2022-09-01T11:37:21.896Z,8548.00
2022-09-01T11:38:21.990Z,8708.00
2022-09-01T11:39:21.867Z,9608.00
2022-09-01T11:40:21.923Z,11740.00
2022-09-01T11:41:21.848Z,21408.00
2022-09-01T11:42:21.855Z,46464.00
2022-09-01T11:43:21.878Z,87200.00
2022-09-01T11:44:21.834Z,14476.00
2022-09-01T11:45:22.106Z,12720.00
2022-09-01T11:46:21.838Z,14516.00
2022-09-01T11:47:21.804Z,48064.00
2022-09-01T11:48:21.784Z,87840.00
2022-09-01T11:49:21.773Z,95136.00
2022-09-01T11:50:21.763Z,94688.00
2022-09-01T11:51:21.750Z,76256.00
2022-09-01T11:52:21.791Z,22048.00
2022-09-01T11:53:22.019Z,53184.00
2022-09-01T11:54:21.728Z,13776.00
2022-09-01T11:55:21.726Z,10196.00
2022-09-01T11:56:21.713Z,9244.00
2022-09-01T11:57:21.719Z,10544.00
2022-09-01T11:58:21.685Z,9888.00
2022-09-01T11:59:21.677Z,10028.00
2022-09-01T12:00:21.676Z,10024.00
2022-09-01T12:01:21.667Z,9328.00
2022-09-01T12:02:21.785Z,8668.00
2022-09-01T12:03:22.060Z,8136.00
2022-09-01T12:04:21.635Z,8164.00
2022-09-01T12:05:21.627Z,8908.00
2022-09-01T12:06:21.630Z,10152.00
2022-09-01T12:07:21.622Z,13012.00
2022-09-01T12:08:24.049Z,58368.00
2022-09-01T12:09:21.656Z,86176.00
2022-09-01T12:10:21.578Z,95200.00
2022-09-01T12:11:21.566Z,93056.00
2022-09-01T12:12:21.584Z,92480.00
2022-09-01T12:13:21.708Z,13476.00
2022-09-01T12:14:21.542Z,21888.00
2022-09-01T12:15:21.534Z,14276.00
2022-09-01T12:16:21.530Z,85024.00
2022-09-01T12:17:21.517Z,76832.00
2022-09-01T12:18:21.549Z,76160.00
2022-09-01T12:19:21.499Z,73632.00
2022-09-01T12:20:24.390Z,67840.00
2022-09-01T12:21:21.485Z,14680.00
2022-09-01T12:22:21.476Z,20256.00
2022-09-01T12:23:21.525Z,54496.00
2022-09-01T12:24:21.459Z,12004.00
2022-09-01T12:25:21.474Z,8928.00
2022-09-01T12:26:21.438Z,7980.00
2022-09-01T12:27:21.428Z,8664.00
2022-09-01T12:28:21.428Z,9868.00
2022-09-01T12:29:21.410Z,28544.00
2022-09-01T12:30:21.402Z,84160.00
2022-09-01T12:31:21.479Z,61696.00
2022-09-01T12:32:21.388Z,75104.00
2022-09-01T12:33:24.655Z,79264.00
2022-09-01T12:34:21.447Z,78944.00
2022-09-01T12:35:21.427Z,83072.00
2022-09-01T12:36:21.453Z,84512.00
2022-09-01T12:37:21.483Z,84992.00
2022-09-01T12:38:21.754Z,80416.00
2022-09-01T12:39:21.459Z,76064.00
2022-09-01T12:40:21.514Z,76864.00
2022-09-01T12:42:21.304Z,76896.00
2022-09-01T12:43:21.505Z,79264.00
2022-09-01T12:44:21.284Z,82240.00
2022-09-01T12:45:21.268Z,10688.00